sensor_id;sensor_type;location;lat;lon;timestamp;temperature;humidity
79356;SHT31;68825;51.978;5.654;2024-01-27T00:01:06;6.0;71.7
79356;SHT31;68825;51.978;5.654;2024-01-27T00:03:35;6.0;71.8
79356;SHT31;68825;51.978;5.654;2024-01-27T00:06:03;6.0;71.4
79356;SHT31;68825;51.978;5.654;2024-01-27T00:08:32;6.0;71.6
79356;SHT31;68825;51.978;5.654;2024-01-27T00:11:01;5.9;71.5
79356;SHT31;68825;51.978;5.654;2024-01-27T00:13:30;5.9;71.9
79356;SHT31;68825;51.978;5.654;2024-01-27T00:15:58;5.9;72.0
79356;SHT31;68825;51.978;5.654;2024-01-27T00:18:27;5.9;71.7
79356;SHT31;68825;51.978;5.654;2024-01-27T00:20:55;5.9;72.2
79356;SHT31;68825;51.978;5.654;2024-01-27T00:23:24;5.9;72.0
79356;SHT31;68825;51.978;5.654;2024-01-27T00:25:52;5.9;72.1
79356;SHT31;68825;51.978;5.654;2024-01-27T00:28:21;5.9;71.9
79356;SHT31;68825;51.978;5.654;2024-01-27T00:30:50;5.9;71.9
79356;SHT31;68825;51.978;5.654;2024-01-27T00:33:18;5.9;71.9
79356;SHT31;68825;51.978;5.654;2024-01-27T00:35:47;5.9;71.7
79356;SHT31;68825;51.978;5.654;2024-01-27T00:38:15;5.9;71.7
79356;SHT31;68825;51.978;5.654;2024-01-27T00:40:44;5.9;71.7
79356;SHT31;68825;51.978;5.654;2024-01-27T00:43:13;5.8;72.1
79356;SHT31;68825;51.978;5.654;2024-01-27T00:45:41;5.8;72.0
79356;SHT31;68825;51.978;5.654;2024-01-27T00:48:10;5.8;71.9
79356;SHT31;68825;51.978;5.654;2024-01-27T00:50:38;5.8;72.4
79356;SHT31;68825;51.978;5.654;2024-01-27T00:53:07;5.8;72.3
79356;SHT31;68825;51.978;5.654;2024-01-27T00:55:35;5.8;72.3
79356;SHT31;68825;51.978;5.654;2024-01-27T00:58:04;5.8;72.2
79356;SHT31;68825;51.978;5.654;2024-01-27T01:00:33;5.8;72.4
79356;SHT31;68825;51.978;5.654;2024-01-27T01:03:01;5.8;72.3
79356;SHT31;68825;51.978;5.654;2024-01-27T01:05:30;5.8;72.4
79356;SHT31;68825;51.978;5.654;2024-01-27T01:07:58;5.8;72.0
79356;SHT31;68825;51.978;5.654;2024-01-27T01:10:27;5.8;72.0
79356;SHT31;68825;51.978;5.654;2024-01-27T01:12:56;5.8;71.7
79356;SHT31;68825;51.978;5.654;2024-01-27T01:15:26;5.8;71.9
79356;SHT31;68825;51.978;5.654;2024-01-27T01:17:55;5.8;72.1
79356;SHT31;68825;51.978;5.654;2024-01-27T01:20:23;5.8;72.1
79356;SHT31;68825;51.978;5.654;2024-01-27T01:22:53;5.7;72.0
79356;SHT31;68825;51.978;5.654;2024-01-27T01:25:22;5.7;71.9
79356;SHT31;68825;51.978;5.654;2024-01-27T01:27:50;5.7;72.1
79356;SHT31;68825;51.978;5.654;2024-01-27T01:30:19;5.7;72.0
79356;SHT31;68825;51.978;5.654;2024-01-27T01:32:48;5.7;71.9
79356;SHT31;68825;51.978;5.654;2024-01-27T01:35:16;5.7;71.8
79356;SHT31;68825;51.978;5.654;2024-01-27T01:37:45;5.7;71.7
79356;SHT31;68825;51.978;5.654;2024-01-27T01:40:14;5.7;71.7
79356;SHT31;68825;51.978;5.654;2024-01-27T01:42:53;5.7;71.6
79356;SHT31;68825;51.978;5.654;2024-01-27T01:45:22;5.7;71.4
79356;SHT31;68825;51.978;5.654;2024-01-27T01:47:50;5.7;71.3
79356;SHT31;68825;51.978;5.654;2024-01-27T01:50:20;5.7;71.3
79356;SHT31;68825;51.978;5.654;2024-01-27T01:52:50;5.7;71.3
79356;SHT31;68825;51.978;5.654;2024-01-27T01:55:20;5.6;71.2
79356;SHT31;68825;51.978;5.654;2024-01-27T01:57:50;5.6;71.2
79356;SHT31;68825;51.978;5.654;2024-01-27T02:00:22;5.6;71.4
79356;SHT31;68825;51.978;5.654;2024-01-27T02:02:50;5.6;71.5
79356;SHT31;68825;51.978;5.654;2024-01-27T02:05:19;5.6;71.6
79356;SHT31;68825;51.978;5.654;2024-01-27T02:07:47;5.5;71.8
79356;SHT31;68825;51.978;5.654;2024-01-27T02:10:17;5.5;71.8
79356;SHT31;68825;51.978;5.654;2024-01-27T02:12:46;5.5;71.6
79356;SHT31;68825;51.978;5.654;2024-01-27T02:15:16;5.5;71.8
79356;SHT31;68825;51.978;5.654;2024-01-27T02:17:45;5.5;71.7
79356;SHT31;68825;51.978;5.654;2024-01-27T02:20:13;5.5;71.4
79356;SHT31;68825;51.978;5.654;2024-01-27T02:22:42;5.4;71.4
79356;SHT31;68825;51.978;5.654;2024-01-27T02:25:10;5.4;71.4
79356;SHT31;68825;51.978;5.654;2024-01-27T02:27:41;5.4;71.5
79356;SHT31;68825;51.978;5.654;2024-01-27T02:30:10;5.4;71.4
79356;SHT31;68825;51.978;5.654;2024-01-27T02:32:39;5.4;71.4
79356;SHT31;68825;51.978;5.654;2024-01-27T02:35:08;5.4;72.1
79356;SHT31;68825;51.978;5.654;2024-01-27T02:37:37;5.3;71.7
79356;SHT31;68825;51.978;5.654;2024-01-27T02:40:06;5.3;71.5
79356;SHT31;68825;51.978;5.654;2024-01-27T02:42:36;5.3;71.8
79356;SHT31;68825;51.978;5.654;2024-01-27T02:45:05;5.3;71.9
79356;SHT31;68825;51.978;5.654;2024-01-27T02:47:34;5.3;71.8
79356;SHT31;68825;51.978;5.654;2024-01-27T02:50:03;5.3;71.8
79356;SHT31;68825;51.978;5.654;2024-01-27T02:52:32;5.3;71.8
79356;SHT31;68825;51.978;5.654;2024-01-27T02:55:01;5.3;72.1
79356;SHT31;68825;51.978;5.654;2024-01-27T02:57:30;5.2;72.2
79356;SHT31;68825;51.978;5.654;2024-01-27T02:59:58;5.2;72.4
79356;SHT31;68825;51.978;5.654;2024-01-27T03:02:29;5.2;72.5
79356;SHT31;68825;51.978;5.654;2024-01-27T03:04:57;5.2;72.7
79356;SHT31;68825;51.978;5.654;2024-01-27T03:07:26;5.2;72.9
79356;SHT31;68825;51.978;5.654;2024-01-27T03:09:54;5.2;73.0
79356;SHT31;68825;51.978;5.654;2024-01-27T03:12:23;5.2;73.2
79356;SHT31;68825;51.978;5.654;2024-01-27T03:14:53;5.2;73.3
79356;SHT31;68825;51.978;5.654;2024-01-27T03:17:22;5.2;73.4
79356;SHT31;68825;51.978;5.654;2024-01-27T03:19:50;5.2;73.5
79356;SHT31;68825;51.978;5.654;2024-01-27T03:22:19;5.1;73.8
79356;SHT31;68825;51.978;5.654;2024-01-27T03:24:48;5.1;73.9
79356;SHT31;68825;51.978;5.654;2024-01-27T03:27:18;5.1;73.7
79356;SHT31;68825;51.978;5.654;2024-01-27T03:29:46;5.1;73.5
79356;SHT31;68825;51.978;5.654;2024-01-27T03:32:15;5.1;73.5
79356;SHT31;68825;51.978;5.654;2024-01-27T03:34:45;5.1;73.4
79356;SHT31;68825;51.978;5.654;2024-01-27T03:37:14;5.1;73.2
79356;SHT31;68825;51.978;5.654;2024-01-27T03:39:43;5.1;73.2
79356;SHT31;68825;51.978;5.654;2024-01-27T03:42:11;5.1;72.9
79356;SHT31;68825;51.978;5.654;2024-01-27T03:44:40;5.1;72.8
79356;SHT31;68825;51.978;5.654;2024-01-27T03:47:09;5.1;72.6
79356;SHT31;68825;51.978;5.654;2024-01-27T03:49:37;5.1;72.5
79356;SHT31;68825;51.978;5.654;2024-01-27T03:52:08;5.1;72.3
79356;SHT31;68825;51.978;5.654;2024-01-27T03:54:37;5.1;72.1
79356;SHT31;68825;51.978;5.654;2024-01-27T03:57:07;5.1;72.2
79356;SHT31;68825;51.978;5.654;2024-01-27T03:59:35;5.1;72.1
79356;SHT31;68825;51.978;5.654;2024-01-27T04:02:05;5.1;72.1
79356;SHT31;68825;51.978;5.654;2024-01-27T04:04:34;5.0;72.4
79356;SHT31;68825;51.978;5.654;2024-01-27T04:07:02;5.0;72.5
79356;SHT31;68825;51.978;5.654;2024-01-27T04:09:33;5.0;72.7
79356;SHT31;68825;51.978;5.654;2024-01-27T04:12:01;5.0;72.9
79356;SHT31;68825;51.978;5.654;2024-01-27T04:14:33;5.0;72.8
79356;SHT31;68825;51.978;5.654;2024-01-27T04:17:01;5.0;73.0
79356;SHT31;68825;51.978;5.654;2024-01-27T04:19:30;5.0;73.0
79356;SHT31;68825;51.978;5.654;2024-01-27T04:21:58;5.0;73.0
79356;SHT31;68825;51.978;5.654;2024-01-27T04:24:27;4.9;73.2
79356;SHT31;68825;51.978;5.654;2024-01-27T04:26:55;4.9;73.2
79356;SHT31;68825;51.978;5.654;2024-01-27T04:29:24;4.9;73.2
79356;SHT31;68825;51.978;5.654;2024-01-27T04:31:52;4.9;72.9
79356;SHT31;68825;51.978;5.654;2024-01-27T04:34:21;4.9;72.7
79356;SHT31;68825;51.978;5.654;2024-01-27T04:36:49;4.9;72.9
79356;SHT31;68825;51.978;5.654;2024-01-27T04:39:18;4.9;73.2
79356;SHT31;68825;51.978;5.654;2024-01-27T04:41:49;4.9;72.8
79356;SHT31;68825;51.978;5.654;2024-01-27T04:44:17;4.9;72.9
79356;SHT31;68825;51.978;5.654;2024-01-27T04:46:46;4.9;72.8
79356;SHT31;68825;51.978;5.654;2024-01-27T04:49:16;4.9;72.9
79356;SHT31;68825;51.978;5.654;2024-01-27T04:51:44;4.9;72.8
79356;SHT31;68825;51.978;5.654;2024-01-27T04:54:13;4.9;72.7
79356;SHT31;68825;51.978;5.654;2024-01-27T04:56:41;4.9;72.4
79356;SHT31;68825;51.978;5.654;2024-01-27T04:59:10;4.9;72.4
79356;SHT31;68825;51.978;5.654;2024-01-27T05:01:39;4.9;72.4
79356;SHT31;68825;51.978;5.654;2024-01-27T05:04:07;4.9;72.7
79356;SHT31;68825;51.978;5.654;2024-01-27T05:06:37;4.9;72.7
79356;SHT31;68825;51.978;5.654;2024-01-27T05:09:06;4.9;72.8
79356;SHT31;68825;51.978;5.654;2024-01-27T05:11:37;4.8;72.8
79356;SHT31;68825;51.978;5.654;2024-01-27T05:14:06;4.8;73.0
79356;SHT31;68825;51.978;5.654;2024-01-27T05:16:34;4.8;73.4
79356;SHT31;68825;51.978;5.654;2024-01-27T05:19:03;4.8;73.3
79356;SHT31;68825;51.978;5.654;2024-01-27T05:21:32;4.8;73.3
79356;SHT31;68825;51.978;5.654;2024-01-27T05:24:00;4.8;73.3
79356;SHT31;68825;51.978;5.654;2024-01-27T05:26:29;4.8;73.3
79356;SHT31;68825;51.978;5.654;2024-01-27T05:28:59;4.8;73.4
79356;SHT31;68825;51.978;5.654;2024-01-27T05:31:28;4.8;73.9
79356;SHT31;68825;51.978;5.654;2024-01-27T05:33:56;4.8;74.1
79356;SHT31;68825;51.978;5.654;2024-01-27T05:36:26;4.8;74.0
79356;SHT31;68825;51.978;5.654;2024-01-27T05:38:54;4.8;74.1
79356;SHT31;68825;51.978;5.654;2024-01-27T05:41:27;4.8;74.0
79356;SHT31;68825;51.978;5.654;2024-01-27T05:43:56;4.8;74.2
79356;SHT31;68825;51.978;5.654;2024-01-27T05:46:26;4.8;74.0
79356;SHT31;68825;51.978;5.654;2024-01-27T05:48:55;4.8;74.0
79356;SHT31;68825;51.978;5.654;2024-01-27T05:51:28;4.8;74.0
79356;SHT31;68825;51.978;5.654;2024-01-27T05:53:58;4.8;73.9
79356;SHT31;68825;51.978;5.654;2024-01-27T05:56:29;4.8;73.9
79356;SHT31;68825;51.978;5.654;2024-01-27T05:58:57;4.8;74.0
79356;SHT31;68825;51.978;5.654;2024-01-27T06:01:26;4.8;74.0
79356;SHT31;68825;51.978;5.654;2024-01-27T06:03:57;4.8;74.1
79356;SHT31;68825;51.978;5.654;2024-01-27T06:06:25;4.8;73.9
79356;SHT31;68825;51.978;5.654;2024-01-27T06:08:53;4.8;73.8
79356;SHT31;68825;51.978;5.654;2024-01-27T06:11:25;4.8;73.8
79356;SHT31;68825;51.978;5.654;2024-01-27T06:13:54;4.8;73.6
79356;SHT31;68825;51.978;5.654;2024-01-27T06:16:22;4.7;73.4
79356;SHT31;68825;51.978;5.654;2024-01-27T06:18:53;4.7;73.3
79356;SHT31;68825;51.978;5.654;2024-01-27T06:21:22;4.7;73.3
79356;SHT31;68825;51.978;5.654;2024-01-27T06:23:52;4.7;73.2
79356;SHT31;68825;51.978;5.654;2024-01-27T06:26:21;4.7;73.2
79356;SHT31;68825;51.978;5.654;2024-01-27T06:28:50;4.7;73.4
79356;SHT31;68825;51.978;5.654;2024-01-27T06:31:18;4.7;73.0
79356;SHT31;68825;51.978;5.654;2024-01-27T06:33:47;4.7;73.0
79356;SHT31;68825;51.978;5.654;2024-01-27T06:36:16;4.7;73.2
79356;SHT31;68825;51.978;5.654;2024-01-27T06:38:44;4.7;73.1
79356;SHT31;68825;51.978;5.654;2024-01-27T06:41:13;4.7;73.2
79356;SHT31;68825;51.978;5.654;2024-01-27T06:43:41;4.7;73.1
79356;SHT31;68825;51.978;5.654;2024-01-27T06:46:10;4.6;73.2
79356;SHT31;68825;51.978;5.654;2024-01-27T06:48:39;4.6;73.1
79356;SHT31;68825;51.978;5.654;2024-01-27T06:51:08;4.6;73.1
79356;SHT31;68825;51.978;5.654;2024-01-27T06:53:37;4.6;73.2
79356;SHT31;68825;51.978;5.654;2024-01-27T06:56:08;4.6;73.3
79356;SHT31;68825;51.978;5.654;2024-01-27T06:58:38;4.6;73.5
79356;SHT31;68825;51.978;5.654;2024-01-27T07:01:08;4.6;73.6
79356;SHT31;68825;51.978;5.654;2024-01-27T07:03:37;4.6;73.4
79356;SHT31;68825;51.978;5.654;2024-01-27T07:06:07;4.6;73.4
79356;SHT31;68825;51.978;5.654;2024-01-27T07:08:36;4.6;73.4
79356;SHT31;68825;51.978;5.654;2024-01-27T07:11:05;4.6;73.5
79356;SHT31;68825;51.978;5.654;2024-01-27T07:13:33;4.6;73.7
79356;SHT31;68825;51.978;5.654;2024-01-27T07:16:02;4.5;73.9
79356;SHT31;68825;51.978;5.654;2024-01-27T07:18:32;4.5;74.0
79356;SHT31;68825;51.978;5.654;2024-01-27T07:21:02;4.5;74.0
79356;SHT31;68825;51.978;5.654;2024-01-27T07:23:30;4.5;74.2
79356;SHT31;68825;51.978;5.654;2024-01-27T07:25:59;4.5;74.4
79356;SHT31;68825;51.978;5.654;2024-01-27T07:28:29;4.5;74.4
79356;SHT31;68825;51.978;5.654;2024-01-27T07:30:58;4.5;74.5
79356;SHT31;68825;51.978;5.654;2024-01-27T07:33:27;4.5;74.4
79356;SHT31;68825;51.978;5.654;2024-01-27T07:35:55;4.5;74.3
79356;SHT31;68825;51.978;5.654;2024-01-27T07:38:24;4.5;74.4
79356;SHT31;68825;51.978;5.654;2024-01-27T07:40:53;4.5;74.3
79356;SHT31;68825;51.978;5.654;2024-01-27T07:43:21;4.5;74.3
79356;SHT31;68825;51.978;5.654;2024-01-27T07:45:50;4.5;74.1
79356;SHT31;68825;51.978;5.654;2024-01-27T07:48:20;4.5;74.1
79356;SHT31;68825;51.978;5.654;2024-01-27T07:50:48;4.5;74.0
79356;SHT31;68825;51.978;5.654;2024-01-27T07:53:17;4.5;74.0
79356;SHT31;68825;51.978;5.654;2024-01-27T07:55:46;4.5;74.0
79356;SHT31;68825;51.978;5.654;2024-01-27T07:58:14;4.5;74.1
79356;SHT31;68825;51.978;5.654;2024-01-27T08:00:43;4.5;74.4
79356;SHT31;68825;51.978;5.654;2024-01-27T08:03:11;4.5;74.7
79356;SHT31;68825;51.978;5.654;2024-01-27T08:05:40;4.5;74.9
79356;SHT31;68825;51.978;5.654;2024-01-27T08:08:08;4.5;74.9
79356;SHT31;68825;51.978;5.654;2024-01-27T08:10:37;4.5;75.1
79356;SHT31;68825;51.978;5.654;2024-01-27T08:13:06;4.5;75.1
79356;SHT31;68825;51.978;5.654;2024-01-27T08:15:35;4.6;75.2
79356;SHT31;68825;51.978;5.654;2024-01-27T08:18:04;4.6;75.2
79356;SHT31;68825;51.978;5.654;2024-01-27T08:20:33;4.6;75.3
79356;SHT31;68825;51.978;5.654;2024-01-27T08:23:01;4.6;75.3
79356;SHT31;68825;51.978;5.654;2024-01-27T08:25:30;4.6;75.3
79356;SHT31;68825;51.978;5.654;2024-01-27T08:27:58;4.6;75.3
79356;SHT31;68825;51.978;5.654;2024-01-27T08:30:27;4.7;75.2
79356;SHT31;68825;51.978;5.654;2024-01-27T08:32:56;4.7;75.2
79356;SHT31;68825;51.978;5.654;2024-01-27T08:35:25;4.7;75.3
79356;SHT31;68825;51.978;5.654;2024-01-27T08:37:53;4.7;75.1
79356;SHT31;68825;51.978;5.654;2024-01-27T08:40:22;4.8;75.1
79356;SHT31;68825;51.978;5.654;2024-01-27T08:42:50;4.8;75.0
79356;SHT31;68825;51.978;5.654;2024-01-27T08:45:19;4.8;75.0
79356;SHT31;68825;51.978;5.654;2024-01-27T08:47:48;4.9;74.9
79356;SHT31;68825;51.978;5.654;2024-01-27T08:50:16;4.9;74.9
79356;SHT31;68825;51.978;5.654;2024-01-27T08:52:45;4.9;74.9
79356;SHT31;68825;51.978;5.654;2024-01-27T08:55:15;4.9;74.9
79356;SHT31;68825;51.978;5.654;2024-01-27T08:57:46;5.0;75.1
79356;SHT31;68825;51.978;5.654;2024-01-27T09:00:15;5.0;75.1
79356;SHT31;68825;51.978;5.654;2024-01-27T09:02:44;5.1;75.2
79356;SHT31;68825;51.978;5.654;2024-01-27T09:05:16;5.1;75.3
79356;SHT31;68825;51.978;5.654;2024-01-27T09:07:44;5.2;74.9
79356;SHT31;68825;51.978;5.654;2024-01-27T09:10:13;5.2;74.8
79356;SHT31;68825;51.978;5.654;2024-01-27T09:12:42;5.3;74.7
79356;SHT31;68825;51.978;5.654;2024-01-27T09:15:13;5.3;74.9
79356;SHT31;68825;51.978;5.654;2024-01-27T09:17:42;5.4;74.6
79356;SHT31;68825;51.978;5.654;2024-01-27T09:20:11;5.4;74.6
79356;SHT31;68825;51.978;5.654;2024-01-27T09:22:40;5.5;73.7
79356;SHT31;68825;51.978;5.654;2024-01-27T09:25:09;5.5;73.8
79356;SHT31;68825;51.978;5.654;2024-01-27T09:27:38;5.5;73.8
79356;SHT31;68825;51.978;5.654;2024-01-27T09:30:08;5.6;73.7
79356;SHT31;68825;51.978;5.654;2024-01-27T09:32:39;5.6;73.6
79356;SHT31;68825;51.978;5.654;2024-01-27T09:35:08;5.6;73.6
79356;SHT31;68825;51.978;5.654;2024-01-27T09:37:38;5.6;73.6
79356;SHT31;68825;51.978;5.654;2024-01-27T09:40:07;5.6;73.6
79356;SHT31;68825;51.978;5.654;2024-01-27T09:42:38;5.6;73.5
79356;SHT31;68825;51.978;5.654;2024-01-27T09:45:09;5.7;73.8
79356;SHT31;68825;51.978;5.654;2024-01-27T09:47:38;5.7;73.7
79356;SHT31;68825;51.978;5.654;2024-01-27T09:50:11;5.7;73.9
79356;SHT31;68825;51.978;5.654;2024-01-27T09:52:41;5.7;73.5
79356;SHT31;68825;51.978;5.654;2024-01-27T09:55:10;5.8;73.8
79356;SHT31;68825;51.978;5.654;2024-01-27T09:57:40;5.8;73.8
79356;SHT31;68825;51.978;5.654;2024-01-27T10:00:10;5.8;73.9
79356;SHT31;68825;51.978;5.654;2024-01-27T10:02:45;5.9;73.8
79356;SHT31;68825;51.978;5.654;2024-01-27T10:05:16;5.9;73.8
79356;SHT31;68825;51.978;5.654;2024-01-27T10:07:46;6.0;73.3
79356;SHT31;68825;51.978;5.654;2024-01-27T10:10:16;6.0;73.2
79356;SHT31;68825;51.978;5.654;2024-01-27T10:12:48;6.1;73.2
79356;SHT31;68825;51.978;5.654;2024-01-27T10:15:20;6.1;73.2
79356;SHT31;68825;51.978;5.654;2024-01-27T10:17:49;6.1;72.6
79356;SHT31;68825;51.978;5.654;2024-01-27T10:20:20;6.2;72.2
79356;SHT31;68825;51.978;5.654;2024-01-27T10:22:49;6.2;72.4
79356;SHT31;68825;51.978;5.654;2024-01-27T10:25:17;6.2;72.4
79356;SHT31;68825;51.978;5.654;2024-01-27T10:27:46;6.3;72.7
79356;SHT31;68825;51.978;5.654;2024-01-27T10:30:17;6.3;72.6
79356;SHT31;68825;51.978;5.654;2024-01-27T10:32:56;6.4;72.7
79356;SHT31;68825;51.978;5.654;2024-01-27T10:35:25;6.4;72.3
79356;SHT31;68825;51.978;5.654;2024-01-27T10:37:55;6.5;72.3
79356;SHT31;68825;51.978;5.654;2024-01-27T10:40:24;6.5;72.1
79356;SHT31;68825;51.978;5.654;2024-01-27T10:43:03;6.5;71.4
79356;SHT31;68825;51.978;5.654;2024-01-27T10:45:39;6.6;72.0
79356;SHT31;68825;51.978;5.654;2024-01-27T10:48:09;6.6;71.7
79356;SHT31;68825;51.978;5.654;2024-01-27T10:50:39;6.7;71.6
79356;SHT31;68825;51.978;5.654;2024-01-27T10:53:21;6.7;71.9
79356;SHT31;68825;51.978;5.654;2024-01-27T10:55:57;6.8;72.5
79356;SHT31;68825;51.978;5.654;2024-01-27T10:58:27;6.9;72.6
79356;SHT31;68825;51.978;5.654;2024-01-27T11:00:59;6.9;72.2
79356;SHT31;68825;51.978;5.654;2024-01-27T11:03:28;7.0;72.4
79356;SHT31;68825;51.978;5.654;2024-01-27T11:05:59;7.1;72.1
79356;SHT31;68825;51.978;5.654;2024-01-27T11:08:31;7.1;71.9
79356;SHT31;68825;51.978;5.654;2024-01-27T11:11:02;7.2;71.9
79356;SHT31;68825;51.978;5.654;2024-01-27T11:13:35;7.3;71.6
79356;SHT31;68825;51.978;5.654;2024-01-27T11:16:04;7.4;72.1
79356;SHT31;68825;51.978;5.654;2024-01-27T11:18:35;7.4;71.4
79356;SHT31;68825;51.978;5.654;2024-01-27T11:21:03;7.5;71.2
79356;SHT31;68825;51.978;5.654;2024-01-27T11:23:35;7.6;71.2
79356;SHT31;68825;51.978;5.654;2024-01-27T11:26:05;7.7;71.4
79356;SHT31;68825;51.978;5.654;2024-01-27T11:28:34;7.7;70.8
79356;SHT31;68825;51.978;5.654;2024-01-27T11:31:05;7.8;70.4
79356;SHT31;68825;51.978;5.654;2024-01-27T11:33:44;7.9;69.9
79356;SHT31;68825;51.978;5.654;2024-01-27T11:36:21;8.0;69.9
79356;SHT31;68825;51.978;5.654;2024-01-27T11:38:51;8.1;70.1
79356;SHT31;68825;51.978;5.654;2024-01-27T11:41:27;8.1;69.7
79356;SHT31;68825;51.978;5.654;2024-01-27T11:43:58;8.2;69.4
79356;SHT31;68825;51.978;5.654;2024-01-27T11:46:28;8.3;69.0
79356;SHT31;68825;51.978;5.654;2024-01-27T11:48:57;8.4;68.1
79356;SHT31;68825;51.978;5.654;2024-01-27T11:51:26;8.4;67.8
79356;SHT31;68825;51.978;5.654;2024-01-27T11:53:55;8.5;66.8
79356;SHT31;68825;51.978;5.654;2024-01-27T11:56:23;8.5;66.0
79356;SHT31;68825;51.978;5.654;2024-01-27T11:58:52;8.6;66.3
79356;SHT31;68825;51.978;5.654;2024-01-27T12:01:21;8.6;66.3
79356;SHT31;68825;51.978;5.654;2024-01-27T12:03:51;8.7;66.0
79356;SHT31;68825;51.978;5.654;2024-01-27T12:06:20;8.7;65.3
79356;SHT31;68825;51.978;5.654;2024-01-27T12:08:49;8.8;65.0
79356;SHT31;68825;51.978;5.654;2024-01-27T12:11:17;8.8;65.0
79356;SHT31;68825;51.978;5.654;2024-01-27T12:13:46;8.9;64.5
79356;SHT31;68825;51.978;5.654;2024-01-27T12:16:15;8.9;64.6
79356;SHT31;68825;51.978;5.654;2024-01-27T12:18:44;9.0;65.6
79356;SHT31;68825;51.978;5.654;2024-01-27T12:21:13;9.0;63.8
79356;SHT31;68825;51.978;5.654;2024-01-27T12:24:03;9.1;62.7
79356;SHT31;68825;51.978;5.654;2024-01-27T12:26:31;9.1;62.4
79356;SHT31;68825;51.978;5.654;2024-01-27T12:29:02;9.1;63.1
79356;SHT31;68825;51.978;5.654;2024-01-27T12:31:31;9.2;63.7
79356;SHT31;68825;51.978;5.654;2024-01-27T12:34:00;9.2;62.5
79356;SHT31;68825;51.978;5.654;2024-01-27T12:36:28;9.2;62.8
79356;SHT31;68825;51.978;5.654;2024-01-27T12:39:01;9.2;63.4
79356;SHT31;68825;51.978;5.654;2024-01-27T12:41:31;9.2;63.0
79356;SHT31;68825;51.978;5.654;2024-01-27T12:44:01;9.3;63.3
79356;SHT31;68825;51.978;5.654;2024-01-27T12:46:30;9.3;62.8
79356;SHT31;68825;51.978;5.654;2024-01-27T12:49:00;9.3;61.8
79356;SHT31;68825;51.978;5.654;2024-01-27T12:51:29;9.3;62.8
79356;SHT31;68825;51.978;5.654;2024-01-27T12:53:58;9.3;62.8
79356;SHT31;68825;51.978;5.654;2024-01-27T12:56:28;9.3;62.4
79356;SHT31;68825;51.978;5.654;2024-01-27T12:58:57;9.3;63.2
79356;SHT31;68825;51.978;5.654;2024-01-27T13:01:25;9.3;63.0
79356;SHT31;68825;51.978;5.654;2024-01-27T13:03:54;9.3;63.4
79356;SHT31;68825;51.978;5.654;2024-01-27T13:06:24;9.3;63.4
79356;SHT31;68825;51.978;5.654;2024-01-27T13:08:53;9.3;63.7
79356;SHT31;68825;51.978;5.654;2024-01-27T13:11:22;9.3;63.7
79356;SHT31;68825;51.978;5.654;2024-01-27T13:13:51;9.3;63.5
79356;SHT31;68825;51.978;5.654;2024-01-27T13:16:21;9.4;63.8
79356;SHT31;68825;51.978;5.654;2024-01-27T13:18:49;9.4;63.5
79356;SHT31;68825;51.978;5.654;2024-01-27T13:21:18;9.4;63.2
79356;SHT31;68825;51.978;5.654;2024-01-27T13:23:48;9.4;63.4
79356;SHT31;68825;51.978;5.654;2024-01-27T13:26:18;9.5;63.3
79356;SHT31;68825;51.978;5.654;2024-01-27T13:28:47;9.5;63.5
79356;SHT31;68825;51.978;5.654;2024-01-27T13:31:17;9.5;63.0
79356;SHT31;68825;51.978;5.654;2024-01-27T13:33:46;9.6;63.1
79356;SHT31;68825;51.978;5.654;2024-01-27T13:36:14;9.6;62.7
79356;SHT31;68825;51.978;5.654;2024-01-27T13:38:43;9.6;62.4
79356;SHT31;68825;51.978;5.654;2024-01-27T13:41:19;9.6;62.3
79356;SHT31;68825;51.978;5.654;2024-01-27T13:43:54;9.6;62.3
79356;SHT31;68825;51.978;5.654;2024-01-27T13:46:23;9.6;62.0
79356;SHT31;68825;51.978;5.654;2024-01-27T13:48:53;9.7;61.7
79356;SHT31;68825;51.978;5.654;2024-01-27T13:51:29;9.7;61.7
79356;SHT31;68825;51.978;5.654;2024-01-27T13:53:57;9.7;61.3
79356;SHT31;68825;51.978;5.654;2024-01-27T13:56:26;9.7;61.3
79356;SHT31;68825;51.978;5.654;2024-01-27T13:58:58;9.7;61.2
79356;SHT31;68825;51.978;5.654;2024-01-27T14:01:27;9.7;61.3
79356;SHT31;68825;51.978;5.654;2024-01-27T14:03:56;9.7;60.3
79356;SHT31;68825;51.978;5.654;2024-01-27T14:06:24;9.7;59.9
79356;SHT31;68825;51.978;5.654;2024-01-27T14:08:53;9.8;59.8
79356;SHT31;68825;51.978;5.654;2024-01-27T14:11:21;9.8;59.7
79356;SHT31;68825;51.978;5.654;2024-01-27T14:13:50;9.8;58.8
79356;SHT31;68825;51.978;5.654;2024-01-27T14:16:18;9.8;60.3
79356;SHT31;68825;51.978;5.654;2024-01-27T14:18:47;9.8;60.2
79356;SHT31;68825;51.978;5.654;2024-01-27T14:21:15;9.8;58.8
79356;SHT31;68825;51.978;5.654;2024-01-27T14:23:44;9.8;59.6
79356;SHT31;68825;51.978;5.654;2024-01-27T14:26:12;9.8;59.2
79356;SHT31;68825;51.978;5.654;2024-01-27T14:28:42;9.8;59.9
79356;SHT31;68825;51.978;5.654;2024-01-27T14:31:11;9.8;60.3
79356;SHT31;68825;51.978;5.654;2024-01-27T14:33:40;9.8;60.6
79356;SHT31;68825;51.978;5.654;2024-01-27T14:36:08;9.8;60.9
79356;SHT31;68825;51.978;5.654;2024-01-27T14:38:37;9.8;60.8
79356;SHT31;68825;51.978;5.654;2024-01-27T14:41:07;9.8;60.4
79356;SHT31;68825;51.978;5.654;2024-01-27T14:43:38;9.8;60.5
79356;SHT31;68825;51.978;5.654;2024-01-27T14:46:07;9.8;59.9
79356;SHT31;68825;51.978;5.654;2024-01-27T14:48:36;9.7;60.1
79356;SHT31;68825;51.978;5.654;2024-01-27T14:51:06;9.7;60.3
79356;SHT31;68825;51.978;5.654;2024-01-27T14:53:34;9.7;60.8
79356;SHT31;68825;51.978;5.654;2024-01-27T14:56:04;9.7;60.8
79356;SHT31;68825;51.978;5.654;2024-01-27T14:58:34;9.6;61.0
79356;SHT31;68825;51.978;5.654;2024-01-27T15:01:02;9.6;60.8
79356;SHT31;68825;51.978;5.654;2024-01-27T15:03:31;9.6;61.2
79356;SHT31;68825;51.978;5.654;2024-01-27T15:06:01;9.6;61.0
79356;SHT31;68825;51.978;5.654;2024-01-27T15:08:32;9.6;60.8
79356;SHT31;68825;51.978;5.654;2024-01-27T15:11:00;9.6;61.4
79356;SHT31;68825;51.978;5.654;2024-01-27T15:13:29;9.6;61.1
79356;SHT31;68825;51.978;5.654;2024-01-27T15:15:58;9.5;61.0
79356;SHT31;68825;51.978;5.654;2024-01-27T15:18:26;9.5;61.4
79356;SHT31;68825;51.978;5.654;2024-01-27T15:20:55;9.5;61.6
79356;SHT31;68825;51.978;5.654;2024-01-27T15:23:24;9.5;62.0
79356;SHT31;68825;51.978;5.654;2024-01-27T15:25:55;9.5;61.9
79356;SHT31;68825;51.978;5.654;2024-01-27T15:28:25;9.5;62.2
79356;SHT31;68825;51.978;5.654;2024-01-27T15:30:54;9.5;62.0
79356;SHT31;68825;51.978;5.654;2024-01-27T15:33:22;9.5;62.2
79356;SHT31;68825;51.978;5.654;2024-01-27T15:35:51;9.4;62.3
79356;SHT31;68825;51.978;5.654;2024-01-27T15:38:20;9.4;62.1
79356;SHT31;68825;51.978;5.654;2024-01-27T15:40:49;9.4;62.1
79356;SHT31;68825;51.978;5.654;2024-01-27T15:43:17;9.4;62.4
79356;SHT31;68825;51.978;5.654;2024-01-27T15:45:46;9.4;62.2
79356;SHT31;68825;51.978;5.654;2024-01-27T15:48:19;9.4;62.4
79356;SHT31;68825;51.978;5.654;2024-01-27T15:50:49;9.4;62.3
79356;SHT31;68825;51.978;5.654;2024-01-27T15:53:18;9.4;62.5
79356;SHT31;68825;51.978;5.654;2024-01-27T15:55:46;9.4;62.4
79356;SHT31;68825;51.978;5.654;2024-01-27T15:58:15;9.4;62.5
79356;SHT31;68825;51.978;5.654;2024-01-27T16:00:43;9.3;62.6
79356;SHT31;68825;51.978;5.654;2024-01-27T16:03:13;9.3;62.7
79356;SHT31;68825;51.978;5.654;2024-01-27T16:05:42;9.3;62.7
79356;SHT31;68825;51.978;5.654;2024-01-27T16:08:12;9.3;62.7
79356;SHT31;68825;51.978;5.654;2024-01-27T16:10:41;9.2;62.6
79356;SHT31;68825;51.978;5.654;2024-01-27T16:13:10;9.2;63.0
79356;SHT31;68825;51.978;5.654;2024-01-27T16:15:39;9.2;63.1
79356;SHT31;68825;51.978;5.654;2024-01-27T16:18:07;9.2;63.1
79356;SHT31;68825;51.978;5.654;2024-01-27T16:20:37;9.1;63.1
79356;SHT31;68825;51.978;5.654;2024-01-27T16:23:06;9.1;63.1
79356;SHT31;68825;51.978;5.654;2024-01-27T16:25:34;9.1;63.2
79356;SHT31;68825;51.978;5.654;2024-01-27T16:28:03;9.1;63.4
79356;SHT31;68825;51.978;5.654;2024-01-27T16:30:32;9.1;63.6